Weather observations for the past three days for
Marion Municipal Airport
Metric (Imperial)
Date Time (edt) Wind (kph) Vis. (km) Weather Sky Cond. Temperature (ºC) Relative Humidity Wind Chill (°C) Heat Index (°C) Pressure Precipitation (cm)
Air Dwpt 6 hour altimeter (cm) sea level (mb) 1 hr 3 hr 6 hr
Max. Min.
03 23:55 Calm 16.09 Fair CLR 23.1 20.7 86% 76.2 0.0
03 23:35 S 6 16.09 Fair CLR 23 20.7 87% 76.2 0.0
03 23:15 Calm 16.09 Fair CLR 23 20.7 87% 76.2 0.0
03 22:55 S 6 11.27 Fair CLR 23.1 20.6 86% 76.2 0.0
03 22:35 Calm 16.09 Fair CLR 23.4 20.5 84% 76.23 0.0
03 22:15 SE 6 16.09 Mostly Cloudy BKN100 23.4 20.5 84% 76.2 0.0
03 21:55 SE 7 11.27 Overcast OVC100 23.3 20.3 83% 76.2 0.0
03 21:35 Calm 16.09 Mostly Cloudy BKN100 22.9 20.2 85% 76.2 0.0
03 21:15 NE 7 11.27 Partly Cloudy SCT100 SCT120 23.6 20.3 82% 76.2 0.0
03 20:55 Calm 11.27 Partly Cloudy SCT085 SCT110 24.7 19 71% 26 76.17 0.0
03 20:35 Calm 11.27 Mostly Cloudy SCT060 SCT090 BKN110 26.3 17 57% 27 76.17 0.0
03 20:15 E 17 8.05 Mostly Cloudy with Haze SCT048 SCT060 BKN090 26.7 18.6 61% 28 76.17 0.0
03 19:55 NE 15 8.05 Mostly Cloudy with Haze SCT055 SCT070 BKN080 27.7 20.4 33.2 9.5 65% 29 76.2 0.0
03 19:35 NW 7 8.05 Mostly Cloudy with Haze BKN080 29.7 23 67% 34 76.15 0.0
03 19:15 SW 6 8.05 Fair with Haze CLR 30.7 22.6 62% 35 76.12 0.0
03 18:55 SW 6 6.44 Fair with Haze CLR 31.3 22.9 61% 36 76.1 0.0
03 18:35 W 7 8.05 Fair with Haze CLR 31.7 22.5 58% 36 76.1 0.0
03 18:15 W 9 8.05 Fair with Haze CLR 32.1 22.2 56% 36 76.1 0.0
03 17:55 W 13 11.27 Fair CLR 32.4 21.8 54% 36 76.07 0.0
03 17:35 W 17 11.27 Fair CLR 32.6 21.7 53% 36 76.07 0.0
03 17:15 W 15 11.27 Fair CLR 32.8 21.5 51% 36 76.1 0.0
03 16:55 SW 15 8.05 Fair with Haze CLR 33 21.6 51% 37 76.07 0.0
03 16:35 SW 17 G 26 11.27 Fair CLR 33 20.9 49% 36 76.07 0.0
03 16:15 W 13 G 26 11.27 Fair CLR 33 21 49% 36 76.07 0.0
03 15:55 SW 15 11.27 Fair CLR 33.2 21 49% 36 76.1 0.0
03 15:35 SW 11 11.27 Fair CLR 33.1 20.8 48% 36 76.12 0.0
03 14:55 SW 15 11.27 Fair CLR 32.9 21.3 50% 36 76.2 0.0
03 14:35 W 11 11.27 Fair CLR 32.7 21.4 51% 36 76.2 0.0
03 14:15 W 11 11.27 Fair CLR 32.5 21.5 52% 36 76.2 0.0
03 13:55 W 15 11.27 Fair CLR 32.3 21.4 32.9 9.5 53% 36 76.2 0.0
03 13:35 SW 13 11.27 Fair CLR 32.1 21.4 53% 35 76.2 0.0
03 13:15 SW 11 11.27 Fair CLR 31.8 21.9 56% 35 76.2 0.0
03 12:55 SW 7 8.05 Fair with Haze CLR 31.6 22.4 58% 36 76.23 0.0
03 12:35 SW 13 11.27 Fair CLR 31.4 22.2 58% 35 76.25 0.0
03 12:15 W 13 11.27 Fair CLR 30.9 21.9 59% 34 76.25 0.0
03 11:55 SW 13 11.27 Fair CLR 30.7 22.1 60% 34 76.28 0.0
03 11:35 SW 17 11.27 Fair CLR 30.3 22.1 62% 34 76.28 0.0
03 11:15 SW 17 8.05 Fair with Haze CLR 29.8 21.9 63% 33 76.25 0.0
03 10:55 SW 11 11.27 Fair CLR 29.2 21.9 65% 32 76.25 0.0
03 10:35 SW 11 11.27 Fair CLR 28.8 21.8 66% 32 76.25 0.0
03 10:15 SW 13 8.05 Fair with Haze CLR 28.3 21.8 68% 31 76.25 0.0
03 09:55 SW 7 11.27 Fair CLR 27.6 21.3 69% 30 76.25 0.0
03 09:35 SW 11 11.27 Fair CLR 26.8 21.3 72% 29 76.28 0.0
03 09:15 SW 7 11.27 Fair CLR 26.1 21.1 74% 28 76.3 0.0
03 08:55 SW 7 11.27 Fair CLR 25.3 20.9 77% 26 76.3 0.0
03 08:35 SW 6 16.09 Fair CLR 24.3 20.7 80% 25 76.3 0.0
03 08:15 Calm 16.09 Fair CLR 23 20.5 86% 76.3 0.0
03 07:55 Calm 16.09 Fair CLR 22.1 20.1 32.9 9.5 88% 76.3 0.0
03 07:35 SW 6 11.27 Fair CLR 21.4 20 92% 76.3 0.0
03 07:15 Calm 11.27 Fair CLR 21.4 19.9 91% 76.28 0.0
03 06:55 Calm 16.09 Fair CLR 22.2 20.1 88% 76.25 0.0
03 06:35 SW 6 16.09 Fair CLR 22.3 20.2 88% 76.25 0.0
03 06:15 Calm 11.27 Fair CLR 23 20.2 84% 76.25 0.0
03 05:55 SW 7 16.09 Fair CLR 23.5 20.3 82% 76.23 0.0
03 05:35 SW 7 16.09 Fair CLR 23.4 20.4 83% 76.23 0.0
03 05:15 SW 7 16.09 Fair CLR 23.6 20.5 83% 76.23 0.0
03 04:55 SW 7 8.05 Fair with Haze CLR 23.8 20.5 82% 76.23 0.0
03 04:35 SW 9 16.09 Fair CLR 23.8 20.6 82% 76.23 0.0
03 04:15 SW 7 16.09 Fair CLR 23.5 20.7 84% 76.2 0.0
03 03:55 SW 7 11.27 Fair CLR 23.6 20.9 85% 76.2 0.0
03 03:35 SW 7 11.27 Fair CLR 23.7 21.1 85% 76.2 0.0
03 03:15 SW 7 16.09 Fair CLR 23.9 21.2 85% 24 76.2 0.0
03 02:55 S 7 11.27 Fair CLR 24 21.2 84% 24 76.2 0.0
03 02:35 S 7 11.27 Fair CLR 24 21.2 84% 24 76.23 0.0
03 02:15 SW 7 11.27 Fair CLR 24.1 21.2 84% 24 76.2 0.0
03 01:55 SW 7 16.09 Fair CLR 24.4 21.3 32.9 9.5 83% 25 76.2 0.0
03 01:35 SW 9 16.09 Fair CLR 24.6 21.3 82% 25 76.2 0.0
03 01:15 SW 9 11.27 Fair CLR 24.5 21.3 82% 25 76.2 0.0
03 00:55 SW 7 6.44 Fair with Haze CLR 24.3 21.3 83% 25 76.17 0.0
03 00:35 SW 7 11.27 Fair CLR 23.9 21.5 86% 24 76.17 0.0
03 00:15 S 6 11.27 Fair CLR 23.8 21.5 87% 76.17 0.0
02 23:55 S 7 16.09 Fair CLR 23.8 21.6 88% 76.17 0.0
02 23:35 Calm 11.27 Fair CLR 24.2 21.8 87% 24 76.2 0.0
02 23:15 S 6 11.27 Fair CLR 24.6 21.9 85% 25 76.2 0.0
02 22:55 SW 6 16.09 Fair CLR 24.7 22.1 86% 25 76.2 0.0
02 22:35 S 7 8.05 Fair with Haze CLR 25 22.2 85% 26 76.2 0.0
02 22:15 SW 7 11.27 Partly Cloudy SCT095 25.2 22.3 84% 26 76.2 0.0
02 21:55 SW 7 16.09 Partly Cloudy SCT095 25.7 22.5 83% 27 76.2 0.0
02 21:35 SW 7 16.09 Mostly Cloudy BKN095 25.6 22.8 85% 27 76.2 0.0
02 21:15 Calm 16.09 Mostly Cloudy BKN095 25.7 23 85% 27 76.2 0.0
02 20:55 SW 7 11.27 Partly Cloudy SCT095 26.1 23.1 84% 28 76.17 0.0
02 20:35 SW 7 16.09 Fair CLR 26.7 23.4 82% 29 76.17 0.0
02 20:15 SW 7 11.27 Fair CLR 27.2 23.7 81% 30 76.17 0.0
02 19:55 SW 6 11.27 Partly Cloudy SCT090 28.3 23.6 32.9 9.5 76% 32 76.17 0.0
02 19:35 W 6 8.05 Partly Cloudy with Haze SCT090 28.8 23.5 73% 33 76.17 0.0
02 19:10 W 6 8.05 Fair with Haze CLR 30.2 22.7 64% 34 76.17 0.0
02 18:55 W 11 11.27 Fair CLR 30.9 22.1 59% 35 76.17 0.0
02 18:35 SW 9 8.05 Fair with Haze CLR 31.5 22 57% 35 76.17 0.0
02 18:15 W 13 11.27 Fair CLR 31.9 22.3 57% 36 76.17 0.0
02 17:55 SW 13 11.27 Fair CLR 32.1 22.3 56% 36 76.17 0.0
02 17:35 W 9 11.27 Fair CLR 32.2 22.1 55% 36 76.17 0.0
02 17:15 W 15 11.27 Fair CLR 32.5 22 54% 36 76.17 0.0
02 16:55 SW 13 16.09 Fair CLR 32.7 21.7 52% 36 76.17 0.0
02 16:35 SW 15 8.05 Fair with Haze CLR 32.8 22.1 53% 37 76.17 0.0
02 16:15 SW 17 8.05 Fair with Haze CLR 32.8 21.9 53% 37 76.2 0.0
02 15:55 SW 15 11.27 Fair CLR 32.9 22.1 53% 37 76.2 0.0
02 15:35 SW 11 11.27 Fair CLR 32.9 21.9 52% 37 76.23 0.0
02 15:15 SW 13 8.05 Fair with Haze CLR 32.9 22.1 53% 37 76.25 0.0
02 14:55 SW 19 11.27 Fair CLR 32.8 22.1 53% 37 76.25 0.0
02 14:35 SW 13 11.27 Fair CLR 32.6 22 54% 37 76.25 0.0
02 14:15 SW 9 11.27 Fair CLR 32.4 22.5 56% 37 76.28 0.0
02 13:55 SW 17 11.27 Fair CLR 32.3 22.4 32.6 9.5 56% 37 76.3 0.0
02 13:35 S 13 11.27 Fair CLR 32.1 22.3 56% 36 76.3 0.0
02 13:15 SW 6 16.09 Fair CLR 31.8 22.1 56% 36 76.33 0.0
02 12:55 SW 11 16.09 Fair CLR 31.6 22.1 57% 35 76.33 0.0
02 12:35 SW 15 16.09 Fair CLR 31.1 21.8 58% 34 76.33 0.0
02 12:15 SW 11 11.27 Fair CLR 30.8 22.2 60% 34 76.33 0.0
02 11:55 SW 15 11.27 Fair CLR 30.4 22.5 63% 34 76.35 0.0
02 11:35 SW 17 11.27 Fair CLR 30 22.4 64% 34 76.35 0.0
02 11:15 SW 7 11.27 Fair CLR 29.5 22.4 66% 33 76.35 0.0
02 10:55 SW 13 16.09 Fair CLR 28.8 22 67% 32 76.35 0.0
02 10:35 SW 9 16.09 Fair CLR 27.9 21.9 70% 30 76.35 0.0
02 10:15 SW 11 11.27 Partly Cloudy SCT070 27.6 22 72% 30 76.35 0.0
02 09:55 SW 9 11.27 Partly Cloudy SCT070 26.7 21.9 75% 29 76.35 0.0
02 09:35 Calm 8.05 Mostly Cloudy with Haze BKN070 25.9 21.6 77% 27 76.38 0.0
02 09:15 SW 7 8.05 Fair with Haze CLR 25.2 21.4 80% 26 76.38 0.0
02 08:55 SW 6 11.27 Fair CLR 24.3 21 82% 25 76.38 0.0
02 08:35 SW 6 8.05 Fair with Haze CLR 23.4 20.6 84% 76.38 0.0
02 08:15 Calm 11.27 Fair CLR 22.3 20 87% 76.38 0.0
02 07:55 SW 6 16.09 Fair CLR 21.6 19.6 32.6 9.5 88% 76.38 0.0
02 07:35 SW 6 6.44 Fog/Mist CLR 20.1 18.9 93% 76.38 0.0
02 07:15 Calm 11.27 Fair CLR 19.8 18.6 93% 76.35 0.0
02 06:55 Calm 11.27 Fair CLR 20.2 18.9 92% 76.33 0.0
02 06:35 Calm 8.05 Fog/Mist CLR 20.1 18.8 92% 76.33 0.0
02 06:15 Calm 16.09 Fair CLR 20.6 19.2 92% 76.3 0.0
02 05:55 Calm 16.09 Fair CLR 20.7 19.3 92% 76.3 0.0
02 05:35 Calm 16.09 Fair CLR 20.6 19.5 93% 76.3 0.0
02 05:15 Calm 11.27 Fair CLR 19.9 18.8 93% 76.3 0.0
02 04:55 Calm 16.09 Fair CLR 19.9 18.8 93% 76.3 0.0
02 04:35 Calm 11.27 Fair CLR 20 18.9 93% 76.3 0.0
02 04:15 Calm 11.27 Fair CLR 20.7 19.5 93% 76.28 0.0
02 03:55 Calm 16.09 Fair CLR 20.8 19.6 93% 76.25 0.0
02 03:35 Calm 11.27 Fair CLR 21.3 19.8 91% 76.25 0.0
02 02:55 Calm 16.09 Fair CLR 21 19.7 92% 76.28 0.0
02 02:35 Calm 11.27 Fair CLR 21.8 20.3 91% 76.28 0.0
02 02:15 S 6 16.09 Fair CLR 22.1 20.5 91% 76.3 0.0
02 01:55 S 6 11.27 Fair CLR 22 20.6 32.6 9.5 92% 76.3 0.0
02 01:35 Calm 16.09 Fair CLR 21.5 20.3 93% 76.3 0.0
02 01:15 Calm 11.27 Fair CLR 21.6 20.4 93% 76.3 0.0
02 00:55 Calm 16.09 Fair CLR 22.2 20.8 92% 76.28 0.0
02 00:35 Calm 16.09 Fair CLR 22.6 21.1 91% 76.3 0.0
02 00:15 Calm 11.27 Fair CLR 22.3 21.1 93% 76.28 0.0
01 23:55 S 6 11.27 Fair CLR 22.4 21.2 93% 76.28 0.0
01 23:35 Calm 11.27 Fair CLR 23 21.5 91% 76.28 0.0
01 23:15 S 6 16.09 Partly Cloudy SCT080 23.7 22 90% 76.3 0.0
01 22:55 S 6 11.27 Partly Cloudy SCT080 24 22.1 89% 24 76.3 0.0
01 22:35 SW 7 11.27 Fair CLR 24.1 22.1 89% 24 76.3 0.0
01 22:15 Calm 16.09 Partly Cloudy SCT100 24.8 22.4 87% 25 76.28 0.0
01 21:55 SW 7 16.09 Partly Cloudy SCT100 24.8 22.6 88% 25 76.25 0.0
01 21:35 S 6 11.27 Partly Cloudy SCT100 24.8 22.7 88% 25 76.25 0.0
01 21:15 S 6 11.27 Fair CLR 25.1 22.9 88% 26 76.25 0.0
01 20:55 SW 6 11.27 Fair CLR 26 23.2 85% 28 76.23 0.0
01 20:35 W 6 6.44 Fair with Haze CLR 26.5 23.7 85% 29 76.23 0.0
01 20:15 SW 6 8.05 Fair with Haze CLR 27.6 24.1 81% 31 76.23 0.0
01 19:55 SW 6 6.44 Fair with Haze CLR 28.8 24.1 32.6 9.5 76% 33 76.23 0.0
01 19:35 SW 6 11.27 Fair CLR 29.9 24 71% 35 76.25 0.0
01 19:15 Calm 8.05 Fair with Haze CLR 30.6 24 68% 36 76.25 0.0
01 18:55 Calm 8.05 Fair with Haze CLR 30.8 24 67% 36 76.25 0.0
01 18:35 W 7 11.27 Fair CLR 31.3 23.6 64% 36 76.25 0.0
01 18:15 W 7 6.44 Fair with Haze CLR 31.7 22.8 59% 36 76.23 0.0
01 17:55 W 9 8.05 Fair with Haze CLR 31.9 22.5 58% 36 76.25 0.0
01 17:35 W 7 11.27 Fair CLR 32.1 22.2 56% 36 76.23 0.0
01 17:15 W 9 11.27 Fair CLR 32.2 22.3 56% 36 76.23 0.0
01 16:55 W 11 11.27 Fair CLR 32.4 22.3 55% 37 76.25 0.0
01 16:35 SW 9 11.27 Fair CLR 32.5 22.4 55% 37 76.25 0.0
01 16:15 SW 15 11.27 Fair CLR 32.5 21.9 54% 36 76.25 0.0
01 15:55 SW 13 11.27 Fair CLR 32.5 21.9 54% 36 76.25 0.0
01 15:35 SW 11 11.27 Fair CLR 32.5 22 54% 36 76.25 0.0
01 15:15 W 13 11.27 Partly Cloudy SCT120 32.4 22.2 55% 36 76.25 0.0
01 14:55 SW 11 11.27 Partly Cloudy SCT120 31.9 21.9 55% 36 76.28 0.0
01 14:35 SW 15 16.09 Partly Cloudy SCT120 31.6 21.8 56% 35 76.28 0.0
01 14:15 SW 15 11.27 Fair CLR 31.4 21.8 57% 35 76.3 0.0
01 13:55 SW 11 11.27 Fair CLR 31 22 31.2 9.5 59% 35 76.28 0.0
01 13:35 SW 11 11.27 Fair CLR 31.1 22.4 60% 35 76.3 0.0
01 13:15 SW 11 11.27 Fair CLR 30.8 22.1 60% 34 76.3 0.0
01 12:55 SW 13 11.27 Fair CLR 30.6 21.9 60% 34 76.3 0.0
01 12:35 SW 13 11.27 Fair CLR 30.3 21.8 60% 34 76.33 0.0
01 12:15 SW 9 16.09 Fair CLR 29.7 21.5 61% 33 76.33 0.0
01 11:55 SW 15 11.27 Fair CLR 29.3 21.3 62% 32 76.35 0.0
01 11:35 SW 13 16.09 Fair CLR 28.7 21.2 64% 31 76.35 0.0
01 11:15 SW 9 11.27 Fair CLR 28.5 21.2 65% 31 76.35 0.0
01 10:55 SW 11 16.09 Fair CLR 28 21 66% 30 76.38 0.0
01 10:35 SW 13 11.27 Fair CLR 27.6 21 67% 30 76.35 0.0
01 10:15 SW 15 16.09 Fair CLR 27 20.8 69% 29 76.38 0.0
01 09:55 SW 9 11.27 Fair CLR 26.5 20.7 71% 28 76.38 0.0
01 09:35 SW 9 11.27 Fair CLR 26.1 20.7 72% 28 76.38 0.0
01 09:15 SW 6 11.27 Fair CLR 25.3 20.6 75% 26 76.38 0.0
01 08:55 SW 7 11.27 Fair CLR 24.3 20.6 80% 25 76.38 0.0
01 08:35 SW 6 16.09 Fair CLR 23.3 20.5 84% 76.38 0.0
01 08:15 Calm 11.27 Fair CLR 22.3 20.2 88% 76.38 0.0
01 07:50 Calm 11.27 Fair CLR 21.4 19.7 31.2 9.5 90% 76.35 0.0
01 07:35 Calm 11.27 Fair CLR 21.2 19.5 90% 76.33 0.0
01 07:15 Calm 11.27 Fair CLR 21.6 19.7 89% 76.33 0.0
01 06:55 SW 6 16.09 Fair CLR 22 20 88% 76.3 0.0
01 06:35 Calm 16.09 Fair CLR 21.9 20 89% 76.3 0.0
01 06:15 Calm 11.27 Fair CLR 22.4 20 86% 76.3 0.0
01 05:55 SW 7 11.27 Fair CLR 22.7 20 85% 76.3 0.0
01 05:35 W 6 11.27 Fair CLR 22.9 20 84% 76.28 0.0
01 05:15 SW 7 16.09 Fair CLR 22.8 20.1 85% 76.25 0.0
01 04:35 SW 9 16.09 Fair CLR 23.4 20 81% 76.25 0.0
01 04:10 SW 9 16.09 Fair CLR 23.7 20 80% 76.25 0.0
01 03:55 SW 9 11.27 Fair CLR 23.9 20 79% 24 76.25 0.0
01 03:35 SW 11 16.09 Fair CLR 24.1 20.1 78% 25 76.25 0.0
01 03:15 SW 11 16.09 Fair CLR 24.1 20.3 79% 25 76.23 0.0
01 02:55 SW 11 11.27 Fair CLR 24 20.6 81% 24 76.25 0.0
01 02:35 SW 9 16.09 Fair CLR 23.8 20.9 84% 76.25 0.0
01 02:15 SW 9 11.27 Fair CLR 23.7 21 85% 76.25 0.0
01 01:55 SW 9 16.09 Fair CLR 23.6 21.1 31.2 9.5 86% 76.25 0.0
01 01:35 SW 7 11.27 Fair CLR 23.9 21.2 85% 24 76.28 0.0
01 01:15 SW 9 16.09 Fair CLR 24.5 21.3 82% 25 76.28 0.0
01 00:55 SW 11 11.27 Fair CLR 24.8 21.2 80% 26 76.25 0.0
01 00:35 S 11 11.27 Fair CLR 25 21.2 80% 26 76.25 0.0
01 00:15 S 13 16.09 Fair CLR 24.8 21.3 81% 26 76.25 0.0
Date Time (edt) Wind (kph) Vis. (km) Weather Sky Cond. Air Dwpt Max. Min. Relative Humidity Wind Chill (°C) Heat Index (°C) altimeter (cm) sea level (mb) 1 hr 3 hr 6 hr
6 hour
Temperature (ºC) Pressure Precipitation (cm)